sensor_id;sensor_type;location;lat;lon;timestamp;temperature;humidity
40964;DHT22;26693;51.168;4.138;2022-10-24T00:00:08;17.90;99.90
40964;DHT22;26693;51.168;4.138;2022-10-24T00:01:15;17.90;99.90
40964;DHT22;26693;51.168;4.138;2022-10-24T00:02:16;17.90;99.90
40964;DHT22;26693;51.168;4.138;2022-10-24T00:03:16;17.80;99.90
40964;DHT22;26693;51.168;4.138;2022-10-24T00:04:17;17.90;99.90
40964;DHT22;26693;51.168;4.138;2022-10-24T00:05:18;17.80;99.90
40964;DHT22;26693;51.168;4.138;2022-10-24T00:06:19;17.90;99.90
40964;DHT22;26693;51.168;4.138;2022-10-24T00:07:19;17.90;99.90
40964;DHT22;26693;51.168;4.138;2022-10-24T00:08:20;17.90;99.90
40964;DHT22;26693;51.168;4.138;2022-10-24T00:09:20;17.90;99.90
40964;DHT22;26693;51.168;4.138;2022-10-24T00:10:21;17.90;99.90
40964;DHT22;26693;51.168;4.138;2022-10-24T00:11:23;17.80;99.90
40964;DHT22;26693;51.168;4.138;2022-10-24T00:12:24;17.90;99.90
40964;DHT22;26693;51.168;4.138;2022-10-24T00:13:25;17.90;99.90
40964;DHT22;26693;51.168;4.138;2022-10-24T00:14:26;17.90;99.90
40964;DHT22;26693;51.168;4.138;2022-10-24T00:15:27;17.90;99.90
40964;DHT22;26693;51.168;4.138;2022-10-24T00:16:27;17.90;99.90
40964;DHT22;26693;51.168;4.138;2022-10-24T00:17:28;17.90;99.90
40964;DHT22;26693;51.168;4.138;2022-10-24T00:18:28;17.90;99.90
40964;DHT22;26693;51.168;4.138;2022-10-24T00:19:29;17.80;99.90
40964;DHT22;26693;51.168;4.138;2022-10-24T00:20:29;17.90;99.90
40964;DHT22;26693;51.168;4.138;2022-10-24T00:21:30;17.90;99.90
40964;DHT22;26693;51.168;4.138;2022-10-24T00:22:31;17.80;99.90
40964;DHT22;26693;51.168;4.138;2022-10-24T00:23:31;17.90;99.90
40964;DHT22;26693;51.168;4.138;2022-10-24T00:24:32;17.90;99.90
40964;DHT22;26693;51.168;4.138;2022-10-24T00:25:32;17.90;99.90
40964;DHT22;26693;51.168;4.138;2022-10-24T00:26:33;17.90;99.90
40964;DHT22;26693;51.168;4.138;2022-10-24T00:27:34;17.90;99.90
40964;DHT22;26693;51.168;4.138;2022-10-24T00:28:36;17.90;99.90
40964;DHT22;26693;51.168;4.138;2022-10-24T00:29:36;17.90;99.90
40964;DHT22;26693;51.168;4.138;2022-10-24T00:30:37;17.80;99.90
40964;DHT22;26693;51.168;4.138;2022-10-24T00:31:38;17.80;99.90
40964;DHT22;26693;51.168;4.138;2022-10-24T00:32:38;17.80;99.90
40964;DHT22;26693;51.168;4.138;2022-10-24T00:33:39;17.90;99.90
40964;DHT22;26693;51.168;4.138;2022-10-24T00:34:40;17.80;99.90
40964;DHT22;26693;51.168;4.138;2022-10-24T00:35:41;17.80;99.90
40964;DHT22;26693;51.168;4.138;2022-10-24T00:36:41;17.80;99.90
40964;DHT22;26693;51.168;4.138;2022-10-24T00:37:42;17.80;99.90
40964;DHT22;26693;51.168;4.138;2022-10-24T00:38:43;17.90;99.90
40964;DHT22;26693;51.168;4.138;2022-10-24T00:39:43;17.90;99.90
40964;DHT22;26693;51.168;4.138;2022-10-24T00:40:44;17.90;99.90
40964;DHT22;26693;51.168;4.138;2022-10-24T00:41:45;17.90;99.90
40964;DHT22;26693;51.168;4.138;2022-10-24T00:42:46;17.90;99.90
40964;DHT22;26693;51.168;4.138;2022-10-24T00:43:47;17.90;99.90
40964;DHT22;26693;51.168;4.138;2022-10-24T00:44:50;17.90;99.90
40964;DHT22;26693;51.168;4.138;2022-10-24T00:45:56;17.90;99.90
40964;DHT22;26693;51.168;4.138;2022-10-24T00:47:02;17.90;99.90
40964;DHT22;26693;51.168;4.138;2022-10-24T00:48:23;17.90;99.90
40964;DHT22;26693;51.168;4.138;2022-10-24T00:50:11;17.90;99.90
40964;DHT22;26693;51.168;4.138;2022-10-24T00:52:15;17.90;99.90
40964;DHT22;26693;51.168;4.138;2022-10-24T00:53:19;17.90;99.90
40964;DHT22;26693;51.168;4.138;2022-10-24T00:54:20;17.90;99.90
40964;DHT22;26693;51.168;4.138;2022-10-24T00:55:20;18.00;99.90
40964;DHT22;26693;51.168;4.138;2022-10-24T00:56:24;17.90;99.90
40964;DHT22;26693;51.168;4.138;2022-10-24T00:57:49;17.90;99.90
40964;DHT22;26693;51.168;4.138;2022-10-24T00:58:51;18.00;99.90
40964;DHT22;26693;51.168;4.138;2022-10-24T00:59:56;18.00;99.90
40964;DHT22;26693;51.168;4.138;2022-10-24T01:00:59;18.00;99.90
40964;DHT22;26693;51.168;4.138;2022-10-24T01:02:00;18.00;99.90
40964;DHT22;26693;51.168;4.138;2022-10-24T01:03:01;18.00;99.90
40964;DHT22;26693;51.168;4.138;2022-10-24T01:04:02;17.90;99.90
40964;DHT22;26693;51.168;4.138;2022-10-24T01:05:04;18.00;99.90
40964;DHT22;26693;51.168;4.138;2022-10-24T01:07:28;18.00;99.90
40964;DHT22;26693;51.168;4.138;2022-10-24T01:08:41;18.00;99.90
40964;DHT22;26693;51.168;4.138;2022-10-24T01:10:02;18.00;99.90
40964;DHT22;26693;51.168;4.138;2022-10-24T01:11:11;18.00;99.90
40964;DHT22;26693;51.168;4.138;2022-10-24T01:12:28;18.00;99.90
40964;DHT22;26693;51.168;4.138;2022-10-24T01:14:55;18.00;99.90
40964;DHT22;26693;51.168;4.138;2022-10-24T01:18:29;18.00;99.90
40964;DHT22;26693;51.168;4.138;2022-10-24T01:21:29;17.90;99.90
40964;DHT22;26693;51.168;4.138;2022-10-24T01:23:56;17.90;99.90
40964;DHT22;26693;51.168;4.138;2022-10-24T01:28:28;17.90;99.90
40964;DHT22;26693;51.168;4.138;2022-10-24T01:29:45;17.90;99.90
40964;DHT22;26693;51.168;4.138;2022-10-24T01:31:08;17.90;99.90
40964;DHT22;26693;51.168;4.138;2022-10-24T01:32:15;17.80;99.90
40964;DHT22;26693;51.168;4.138;2022-10-24T01:33:37;17.80;99.90
40964;DHT22;26693;51.168;4.138;2022-10-24T01:34:46;17.80;99.90
40964;DHT22;26693;51.168;4.138;2022-10-24T01:35:55;17.80;99.90
40964;DHT22;26693;51.168;4.138;2022-10-24T01:37:08;17.80;99.90
40964;DHT22;26693;51.168;4.138;2022-10-24T01:38:28;17.80;99.90
40964;DHT22;26693;51.168;4.138;2022-10-24T01:39:34;17.80;99.90
40964;DHT22;26693;51.168;4.138;2022-10-24T01:41:54;17.80;99.90
40964;DHT22;26693;51.168;4.138;2022-10-24T01:42:59;17.70;99.90
40964;DHT22;26693;51.168;4.138;2022-10-24T01:44:28;17.70;99.90
40964;DHT22;26693;51.168;4.138;2022-10-24T01:45:33;17.70;99.90
40964;DHT22;26693;51.168;4.138;2022-10-24T01:46:40;17.70;99.90
40964;DHT22;26693;51.168;4.138;2022-10-24T01:47:46;17.70;99.90
40964;DHT22;26693;51.168;4.138;2022-10-24T01:48:52;17.70;99.90
40964;DHT22;26693;51.168;4.138;2022-10-24T01:50:00;17.70;99.90
40964;DHT22;26693;51.168;4.138;2022-10-24T01:51:02;17.80;99.90
40964;DHT22;26693;51.168;4.138;2022-10-24T01:52:07;17.70;99.90
40964;DHT22;26693;51.168;4.138;2022-10-24T01:53:09;17.70;99.90
40964;DHT22;26693;51.168;4.138;2022-10-24T01:54:12;17.60;99.90
40964;DHT22;26693;51.168;4.138;2022-10-24T01:55:13;17.60;99.90
40964;DHT22;26693;51.168;4.138;2022-10-24T01:56:14;17.70;99.90
40964;DHT22;26693;51.168;4.138;2022-10-24T01:57:15;17.60;99.90
40964;DHT22;26693;51.168;4.138;2022-10-24T01:58:15;17.60;99.90
40964;DHT22;26693;51.168;4.138;2022-10-24T02:00:27;17.60;99.90
40964;DHT22;26693;51.168;4.138;2022-10-24T02:01:28;17.60;99.90
40964;DHT22;26693;51.168;4.138;2022-10-24T02:02:40;17.60;99.90
40964;DHT22;26693;51.168;4.138;2022-10-24T02:03:46;17.70;99.90
40964;DHT22;26693;51.168;4.138;2022-10-24T02:04:51;17.70;99.90
40964;DHT22;26693;51.168;4.138;2022-10-24T02:06:02;17.60;99.90
40964;DHT22;26693;51.168;4.138;2022-10-24T02:07:06;17.60;99.90
40964;DHT22;26693;51.168;4.138;2022-10-24T02:08:12;17.50;99.90
40964;DHT22;26693;51.168;4.138;2022-10-24T02:09:16;17.60;99.90
40964;DHT22;26693;51.168;4.138;2022-10-24T02:10:27;17.50;99.90
40964;DHT22;26693;51.168;4.138;2022-10-24T02:11:28;17.60;99.90
40964;DHT22;26693;51.168;4.138;2022-10-24T02:12:30;17.50;99.90
40964;DHT22;26693;51.168;4.138;2022-10-24T02:14:59;17.50;99.90
40964;DHT22;26693;51.168;4.138;2022-10-24T02:16:03;17.50;99.90
40964;DHT22;26693;51.168;4.138;2022-10-24T02:17:05;17.60;99.90
40964;DHT22;26693;51.168;4.138;2022-10-24T02:18:05;17.50;99.90
40964;DHT22;26693;51.168;4.138;2022-10-24T02:19:06;17.50;99.90
40964;DHT22;26693;51.168;4.138;2022-10-24T02:20:07;17.50;99.90
40964;DHT22;26693;51.168;4.138;2022-10-24T02:25:10;17.50;99.90
40964;DHT22;26693;51.168;4.138;2022-10-24T02:26:40;17.50;99.90
40964;DHT22;26693;51.168;4.138;2022-10-24T02:27:59;17.40;99.90
40964;DHT22;26693;51.168;4.138;2022-10-24T02:29:09;17.50;99.90
40964;DHT22;26693;51.168;4.138;2022-10-24T02:30:14;17.50;99.90
40964;DHT22;26693;51.168;4.138;2022-10-24T02:31:21;17.50;99.90
40964;DHT22;26693;51.168;4.138;2022-10-24T02:32:41;17.50;99.90
40964;DHT22;26693;51.168;4.138;2022-10-24T02:33:43;17.50;99.90
40964;DHT22;26693;51.168;4.138;2022-10-24T02:34:45;17.50;99.90
40964;DHT22;26693;51.168;4.138;2022-10-24T02:35:47;17.40;99.90
40964;DHT22;26693;51.168;4.138;2022-10-24T02:36:52;17.50;99.90
40964;DHT22;26693;51.168;4.138;2022-10-24T02:37:58;17.50;99.90
40964;DHT22;26693;51.168;4.138;2022-10-24T02:39:00;17.50;99.90
40964;DHT22;26693;51.168;4.138;2022-10-24T02:40:02;17.50;99.90
40964;DHT22;26693;51.168;4.138;2022-10-24T02:41:08;17.50;99.90
40964;DHT22;26693;51.168;4.138;2022-10-24T02:42:11;17.50;99.90
40964;DHT22;26693;51.168;4.138;2022-10-24T02:43:13;17.50;99.90
40964;DHT22;26693;51.168;4.138;2022-10-24T02:44:15;17.50;99.90
40964;DHT22;26693;51.168;4.138;2022-10-24T02:45:18;17.50;99.90
40964;DHT22;26693;51.168;4.138;2022-10-24T02:46:20;17.50;99.90
40964;DHT22;26693;51.168;4.138;2022-10-24T02:47:23;17.50;99.90
40964;DHT22;26693;51.168;4.138;2022-10-24T02:48:33;17.50;99.90
40964;DHT22;26693;51.168;4.138;2022-10-24T02:49:35;17.50;99.90
40964;DHT22;26693;51.168;4.138;2022-10-24T02:50:37;17.50;99.90
40964;DHT22;26693;51.168;4.138;2022-10-24T02:51:40;17.50;99.90
40964;DHT22;26693;51.168;4.138;2022-10-24T02:52:43;17.40;99.90
40964;DHT22;26693;51.168;4.138;2022-10-24T02:53:44;17.40;99.90
40964;DHT22;26693;51.168;4.138;2022-10-24T02:54:44;17.50;99.90
40964;DHT22;26693;51.168;4.138;2022-10-24T02:55:45;17.50;99.90
40964;DHT22;26693;51.168;4.138;2022-10-24T02:56:50;17.50;99.90
40964;DHT22;26693;51.168;4.138;2022-10-24T02:57:51;17.50;99.90
40964;DHT22;26693;51.168;4.138;2022-10-24T02:58:52;17.50;99.90
40964;DHT22;26693;51.168;4.138;2022-10-24T02:59:52;17.50;99.90
40964;DHT22;26693;51.168;4.138;2022-10-24T03:00:53;17.50;99.90
40964;DHT22;26693;51.168;4.138;2022-10-24T03:01:54;17.50;99.90
40964;DHT22;26693;51.168;4.138;2022-10-24T03:02:54;17.50;99.90
40964;DHT22;26693;51.168;4.138;2022-10-24T03:03:55;17.50;99.90
40964;DHT22;26693;51.168;4.138;2022-10-24T03:04:55;17.50;99.90
40964;DHT22;26693;51.168;4.138;2022-10-24T03:05:56;17.60;99.90
40964;DHT22;26693;51.168;4.138;2022-10-24T03:06:57;17.60;99.90
40964;DHT22;26693;51.168;4.138;2022-10-24T03:07:57;17.60;99.90
40964;DHT22;26693;51.168;4.138;2022-10-24T03:08:58;17.60;99.90
40964;DHT22;26693;51.168;4.138;2022-10-24T03:09:58;17.60;99.90
40964;DHT22;26693;51.168;4.138;2022-10-24T03:10:59;17.60;99.90
40964;DHT22;26693;51.168;4.138;2022-10-24T03:12:00;17.60;99.90
40964;DHT22;26693;51.168;4.138;2022-10-24T03:13:00;17.60;99.90
40964;DHT22;26693;51.168;4.138;2022-10-24T03:14:02;17.60;99.90
40964;DHT22;26693;51.168;4.138;2022-10-24T03:15:04;17.60;99.90
40964;DHT22;26693;51.168;4.138;2022-10-24T03:16:05;17.60;99.90
40964;DHT22;26693;51.168;4.138;2022-10-24T03:17:06;17.60;99.90
40964;DHT22;26693;51.168;4.138;2022-10-24T03:18:06;17.50;99.90
40964;DHT22;26693;51.168;4.138;2022-10-24T03:19:07;17.50;99.90
40964;DHT22;26693;51.168;4.138;2022-10-24T03:20:08;17.50;99.90
40964;DHT22;26693;51.168;4.138;2022-10-24T03:21:09;17.50;99.90
40964;DHT22;26693;51.168;4.138;2022-10-24T03:22:09;17.50;99.90
40964;DHT22;26693;51.168;4.138;2022-10-24T03:23:10;17.50;99.90
40964;DHT22;26693;51.168;4.138;2022-10-24T03:24:11;17.40;99.90
40964;DHT22;26693;51.168;4.138;2022-10-24T03:25:11;17.40;99.90
40964;DHT22;26693;51.168;4.138;2022-10-24T03:26:12;17.40;99.90
40964;DHT22;26693;51.168;4.138;2022-10-24T03:27:13;17.40;99.90
40964;DHT22;26693;51.168;4.138;2022-10-24T03:28:14;17.30;99.90
40964;DHT22;26693;51.168;4.138;2022-10-24T03:29:14;17.30;99.90
40964;DHT22;26693;51.168;4.138;2022-10-24T03:30:15;17.30;99.90
40964;DHT22;26693;51.168;4.138;2022-10-24T03:31:16;17.30;99.90
40964;DHT22;26693;51.168;4.138;2022-10-24T03:32:16;17.30;99.90
40964;DHT22;26693;51.168;4.138;2022-10-24T03:33:17;17.30;99.90
40964;DHT22;26693;51.168;4.138;2022-10-24T03:34:18;17.30;99.90
40964;DHT22;26693;51.168;4.138;2022-10-24T03:35:18;17.30;99.90
40964;DHT22;26693;51.168;4.138;2022-10-24T03:36:19;17.30;99.90
40964;DHT22;26693;51.168;4.138;2022-10-24T03:37:19;17.30;99.90
40964;DHT22;26693;51.168;4.138;2022-10-24T03:38:21;17.30;99.90
40964;DHT22;26693;51.168;4.138;2022-10-24T03:39:22;17.30;99.90
40964;DHT22;26693;51.168;4.138;2022-10-24T03:40:22;17.30;99.90
40964;DHT22;26693;51.168;4.138;2022-10-24T03:41:23;17.20;99.90
40964;DHT22;26693;51.168;4.138;2022-10-24T03:42:23;17.20;99.90
40964;DHT22;26693;51.168;4.138;2022-10-24T03:43:24;17.20;99.90
40964;DHT22;26693;51.168;4.138;2022-10-24T03:44:24;17.30;99.90
40964;DHT22;26693;51.168;4.138;2022-10-24T03:45:25;17.20;99.90
40964;DHT22;26693;51.168;4.138;2022-10-24T03:46:26;17.20;99.90
40964;DHT22;26693;51.168;4.138;2022-10-24T03:47:26;17.20;99.90
40964;DHT22;26693;51.168;4.138;2022-10-24T03:48:27;17.20;99.90
40964;DHT22;26693;51.168;4.138;2022-10-24T03:49:28;17.20;99.90
40964;DHT22;26693;51.168;4.138;2022-10-24T03:50:29;17.20;99.90
40964;DHT22;26693;51.168;4.138;2022-10-24T03:51:29;17.20;99.90
40964;DHT22;26693;51.168;4.138;2022-10-24T03:52:30;17.20;99.90
40964;DHT22;26693;51.168;4.138;2022-10-24T03:53:30;17.10;99.90
40964;DHT22;26693;51.168;4.138;2022-10-24T03:54:31;17.10;99.90
40964;DHT22;26693;51.168;4.138;2022-10-24T03:55:32;17.10;99.90
40964;DHT22;26693;51.168;4.138;2022-10-24T03:56:33;17.20;99.90
40964;DHT22;26693;51.168;4.138;2022-10-24T03:57:33;17.20;99.90
40964;DHT22;26693;51.168;4.138;2022-10-24T03:58:34;17.20;99.90
40964;DHT22;26693;51.168;4.138;2022-10-24T03:59:35;17.20;99.90
40964;DHT22;26693;51.168;4.138;2022-10-24T04:00:36;17.20;99.90
40964;DHT22;26693;51.168;4.138;2022-10-24T04:01:39;17.20;99.90
40964;DHT22;26693;51.168;4.138;2022-10-24T04:02:40;17.20;99.90
40964;DHT22;26693;51.168;4.138;2022-10-24T04:03:40;17.20;99.90
40964;DHT22;26693;51.168;4.138;2022-10-24T04:04:41;17.20;99.90
40964;DHT22;26693;51.168;4.138;2022-10-24T04:05:41;17.30;99.90
40964;DHT22;26693;51.168;4.138;2022-10-24T04:06:42;17.20;99.90
40964;DHT22;26693;51.168;4.138;2022-10-24T04:07:42;17.20;99.90
40964;DHT22;26693;51.168;4.138;2022-10-24T04:08:43;17.20;99.90
40964;DHT22;26693;51.168;4.138;2022-10-24T04:09:43;17.20;99.90
40964;DHT22;26693;51.168;4.138;2022-10-24T04:10:44;17.10;99.90
40964;DHT22;26693;51.168;4.138;2022-10-24T04:11:46;17.10;99.90
40964;DHT22;26693;51.168;4.138;2022-10-24T04:12:46;17.10;99.90
40964;DHT22;26693;51.168;4.138;2022-10-24T04:13:47;17.10;99.90
40964;DHT22;26693;51.168;4.138;2022-10-24T04:14:48;17.10;99.90
40964;DHT22;26693;51.168;4.138;2022-10-24T04:15:48;17.10;99.90
40964;DHT22;26693;51.168;4.138;2022-10-24T04:16:49;17.10;99.90
40964;DHT22;26693;51.168;4.138;2022-10-24T04:17:49;17.20;99.90
40964;DHT22;26693;51.168;4.138;2022-10-24T04:18:50;17.20;99.90
40964;DHT22;26693;51.168;4.138;2022-10-24T04:19:51;17.20;99.90
40964;DHT22;26693;51.168;4.138;2022-10-24T04:20:51;17.20;99.90
40964;DHT22;26693;51.168;4.138;2022-10-24T04:21:52;17.20;99.90
40964;DHT22;26693;51.168;4.138;2022-10-24T04:22:53;17.20;99.90
40964;DHT22;26693;51.168;4.138;2022-10-24T04:23:53;17.20;99.90
40964;DHT22;26693;51.168;4.138;2022-10-24T04:24:54;17.20;99.90
40964;DHT22;26693;51.168;4.138;2022-10-24T04:25:55;17.20;99.90
40964;DHT22;26693;51.168;4.138;2022-10-24T04:26:55;17.20;99.90
40964;DHT22;26693;51.168;4.138;2022-10-24T04:27:56;17.20;99.90
40964;DHT22;26693;51.168;4.138;2022-10-24T04:28:56;17.30;99.90
40964;DHT22;26693;51.168;4.138;2022-10-24T04:29:57;17.30;99.90
40964;DHT22;26693;51.168;4.138;2022-10-24T04:30:58;17.30;99.90
40964;DHT22;26693;51.168;4.138;2022-10-24T04:31:58;17.30;99.90
40964;DHT22;26693;51.168;4.138;2022-10-24T04:32:59;17.30;99.90
40964;DHT22;26693;51.168;4.138;2022-10-24T04:33:59;17.30;99.90
40964;DHT22;26693;51.168;4.138;2022-10-24T04:35:01;17.30;99.90
40964;DHT22;26693;51.168;4.138;2022-10-24T04:36:01;17.20;99.90
40964;DHT22;26693;51.168;4.138;2022-10-24T04:37:02;17.20;99.90
40964;DHT22;26693;51.168;4.138;2022-10-24T04:38:03;17.20;99.90
40964;DHT22;26693;51.168;4.138;2022-10-24T04:39:04;17.20;99.90
40964;DHT22;26693;51.168;4.138;2022-10-24T04:40:05;17.20;99.90
40964;DHT22;26693;51.168;4.138;2022-10-24T04:41:05;17.20;99.90
40964;DHT22;26693;51.168;4.138;2022-10-24T04:42:06;17.20;99.90
40964;DHT22;26693;51.168;4.138;2022-10-24T04:43:07;17.20;99.90
40964;DHT22;26693;51.168;4.138;2022-10-24T04:44:07;17.20;99.90
40964;DHT22;26693;51.168;4.138;2022-10-24T04:45:08;17.20;99.90
40964;DHT22;26693;51.168;4.138;2022-10-24T04:46:09;17.20;99.90
40964;DHT22;26693;51.168;4.138;2022-10-24T04:47:09;17.30;99.90
40964;DHT22;26693;51.168;4.138;2022-10-24T04:48:10;17.20;99.90
40964;DHT22;26693;51.168;4.138;2022-10-24T04:49:10;17.20;99.90
40964;DHT22;26693;51.168;4.138;2022-10-24T04:50:11;17.20;99.90
40964;DHT22;26693;51.168;4.138;2022-10-24T04:51:11;17.20;99.90
40964;DHT22;26693;51.168;4.138;2022-10-24T04:52:12;17.20;99.90
40964;DHT22;26693;51.168;4.138;2022-10-24T04:53:13;17.20;99.90
40964;DHT22;26693;51.168;4.138;2022-10-24T04:54:13;17.20;99.90
40964;DHT22;26693;51.168;4.138;2022-10-24T04:55:14;17.20;99.90
40964;DHT22;26693;51.168;4.138;2022-10-24T04:56:14;17.10;99.90
40964;DHT22;26693;51.168;4.138;2022-10-24T04:57:15;17.20;99.90
40964;DHT22;26693;51.168;4.138;2022-10-24T04:58:15;17.20;99.90
40964;DHT22;26693;51.168;4.138;2022-10-24T04:59:16;17.20;99.90
40964;DHT22;26693;51.168;4.138;2022-10-24T05:00:17;17.30;99.90
40964;DHT22;26693;51.168;4.138;2022-10-24T05:01:17;17.30;99.90
40964;DHT22;26693;51.168;4.138;2022-10-24T05:02:18;17.30;99.90
40964;DHT22;26693;51.168;4.138;2022-10-24T05:03:19;17.30;99.90
40964;DHT22;26693;51.168;4.138;2022-10-24T05:04:20;17.30;99.90
40964;DHT22;26693;51.168;4.138;2022-10-24T05:05:21;17.30;99.90
40964;DHT22;26693;51.168;4.138;2022-10-24T05:06:21;17.30;99.90
40964;DHT22;26693;51.168;4.138;2022-10-24T05:07:22;17.30;99.90
40964;DHT22;26693;51.168;4.138;2022-10-24T05:08:22;17.20;99.90
40964;DHT22;26693;51.168;4.138;2022-10-24T05:09:23;17.20;99.90
40964;DHT22;26693;51.168;4.138;2022-10-24T05:10:23;17.20;99.90
40964;DHT22;26693;51.168;4.138;2022-10-24T05:11:24;17.20;99.90
40964;DHT22;26693;51.168;4.138;2022-10-24T05:12:24;17.10;99.90
40964;DHT22;26693;51.168;4.138;2022-10-24T05:13:25;17.20;99.90
40964;DHT22;26693;51.168;4.138;2022-10-24T05:14:25;17.20;99.90
40964;DHT22;26693;51.168;4.138;2022-10-24T05:15:26;17.20;99.90
40964;DHT22;26693;51.168;4.138;2022-10-24T05:16:29;17.20;99.90
40964;DHT22;26693;51.168;4.138;2022-10-24T05:17:29;17.20;99.90
40964;DHT22;26693;51.168;4.138;2022-10-24T05:18:30;17.20;99.90
40964;DHT22;26693;51.168;4.138;2022-10-24T05:19:31;17.20;99.90
40964;DHT22;26693;51.168;4.138;2022-10-24T05:20:31;17.20;99.90
40964;DHT22;26693;51.168;4.138;2022-10-24T05:21:32;17.30;99.90
40964;DHT22;26693;51.168;4.138;2022-10-24T05:22:33;17.20;99.90
40964;DHT22;26693;51.168;4.138;2022-10-24T05:23:34;17.20;99.90
40964;DHT22;26693;51.168;4.138;2022-10-24T05:24:34;17.20;99.90
40964;DHT22;26693;51.168;4.138;2022-10-24T05:25:35;17.10;99.90
40964;DHT22;26693;51.168;4.138;2022-10-24T05:26:35;17.10;99.90
40964;DHT22;26693;51.168;4.138;2022-10-24T05:27:36;17.10;99.90
40964;DHT22;26693;51.168;4.138;2022-10-24T05:28:36;17.00;99.90
40964;DHT22;26693;51.168;4.138;2022-10-24T05:29:37;17.00;99.90
40964;DHT22;26693;51.168;4.138;2022-10-24T05:30:37;17.00;99.90
40964;DHT22;26693;51.168;4.138;2022-10-24T05:31:38;17.00;99.90
40964;DHT22;26693;51.168;4.138;2022-10-24T05:32:39;17.00;99.90
40964;DHT22;26693;51.168;4.138;2022-10-24T05:33:39;16.90;99.90
40964;DHT22;26693;51.168;4.138;2022-10-24T05:34:40;17.00;99.90
40964;DHT22;26693;51.168;4.138;2022-10-24T05:35:40;17.00;99.90
40964;DHT22;26693;51.168;4.138;2022-10-24T05:36:41;16.90;99.90
40964;DHT22;26693;51.168;4.138;2022-10-24T05:37:41;16.90;99.90
40964;DHT22;26693;51.168;4.138;2022-10-24T05:38:43;16.90;99.90
40964;DHT22;26693;51.168;4.138;2022-10-24T05:39:43;16.90;99.90
40964;DHT22;26693;51.168;4.138;2022-10-24T05:40:45;16.90;99.90
40964;DHT22;26693;51.168;4.138;2022-10-24T05:41:50;16.90;99.90
40964;DHT22;26693;51.168;4.138;2022-10-24T05:42:51;16.90;99.90
40964;DHT22;26693;51.168;4.138;2022-10-24T05:43:51;16.90;99.90
40964;DHT22;26693;51.168;4.138;2022-10-24T05:44:52;16.90;99.90
40964;DHT22;26693;51.168;4.138;2022-10-24T05:45:52;16.80;99.90
40964;DHT22;26693;51.168;4.138;2022-10-24T05:46:53;16.80;99.90
40964;DHT22;26693;51.168;4.138;2022-10-24T05:47:54;16.80;99.90
40964;DHT22;26693;51.168;4.138;2022-10-24T05:48:54;16.90;99.90
40964;DHT22;26693;51.168;4.138;2022-10-24T05:49:55;16.80;99.90
40964;DHT22;26693;51.168;4.138;2022-10-24T05:50:56;16.90;99.90
40964;DHT22;26693;51.168;4.138;2022-10-24T05:51:57;16.80;99.90
40964;DHT22;26693;51.168;4.138;2022-10-24T05:52:57;16.80;99.90
40964;DHT22;26693;51.168;4.138;2022-10-24T05:53:58;16.80;99.90
40964;DHT22;26693;51.168;4.138;2022-10-24T05:54:58;16.80;99.90
40964;DHT22;26693;51.168;4.138;2022-10-24T05:55:59;16.80;99.90
40964;DHT22;26693;51.168;4.138;2022-10-24T05:56:59;16.80;99.90
40964;DHT22;26693;51.168;4.138;2022-10-24T05:58:00;16.80;99.90
40964;DHT22;26693;51.168;4.138;2022-10-24T05:59:01;16.70;99.90
40964;DHT22;26693;51.168;4.138;2022-10-24T06:00:09;16.70;99.90
40964;DHT22;26693;51.168;4.138;2022-10-24T06:01:11;16.70;99.90
40964;DHT22;26693;51.168;4.138;2022-10-24T06:02:19;16.60;99.90
40964;DHT22;26693;51.168;4.138;2022-10-24T06:03:21;16.60;99.90
40964;DHT22;26693;51.168;4.138;2022-10-24T06:04:22;16.60;99.90
40964;DHT22;26693;51.168;4.138;2022-10-24T06:05:22;16.70;99.90
40964;DHT22;26693;51.168;4.138;2022-10-24T06:06:23;16.60;99.90
40964;DHT22;26693;51.168;4.138;2022-10-24T06:07:24;16.60;99.90
40964;DHT22;26693;51.168;4.138;2022-10-24T06:08:47;16.60;99.90
40964;DHT22;26693;51.168;4.138;2022-10-24T06:09:49;16.60;99.90
40964;DHT22;26693;51.168;4.138;2022-10-24T06:10:50;16.60;99.90
40964;DHT22;26693;51.168;4.138;2022-10-24T06:11:51;16.60;99.90
40964;DHT22;26693;51.168;4.138;2022-10-24T06:12:52;16.60;99.90
40964;DHT22;26693;51.168;4.138;2022-10-24T06:13:55;16.50;99.90
40964;DHT22;26693;51.168;4.138;2022-10-24T06:14:58;16.60;99.90
40964;DHT22;26693;51.168;4.138;2022-10-24T06:15:59;16.70;99.90
40964;DHT22;26693;51.168;4.138;2022-10-24T06:16:59;16.60;99.90
40964;DHT22;26693;51.168;4.138;2022-10-24T06:18:11;16.70;99.90
40964;DHT22;26693;51.168;4.138;2022-10-24T06:19:11;16.70;99.90
40964;DHT22;26693;51.168;4.138;2022-10-24T06:20:12;16.60;99.90
40964;DHT22;26693;51.168;4.138;2022-10-24T06:21:13;16.70;99.90
40964;DHT22;26693;51.168;4.138;2022-10-24T06:22:17;16.70;99.90
40964;DHT22;26693;51.168;4.138;2022-10-24T06:23:19;16.70;99.90
40964;DHT22;26693;51.168;4.138;2022-10-24T06:24:19;16.70;99.90
40964;DHT22;26693;51.168;4.138;2022-10-24T06:25:20;16.80;99.90
40964;DHT22;26693;51.168;4.138;2022-10-24T06:26:21;16.80;99.90
40964;DHT22;26693;51.168;4.138;2022-10-24T06:27:22;16.80;99.90
40964;DHT22;26693;51.168;4.138;2022-10-24T06:28:23;16.70;99.90
40964;DHT22;26693;51.168;4.138;2022-10-24T06:29:24;16.60;99.90
40964;DHT22;26693;51.168;4.138;2022-10-24T06:30:24;16.60;99.90
40964;DHT22;26693;51.168;4.138;2022-10-24T06:31:25;16.60;99.90
40964;DHT22;26693;51.168;4.138;2022-10-24T06:32:25;16.50;99.90
40964;DHT22;26693;51.168;4.138;2022-10-24T06:33:26;16.50;99.90
40964;DHT22;26693;51.168;4.138;2022-10-24T06:34:27;16.40;99.90
40964;DHT22;26693;51.168;4.138;2022-10-24T06:35:27;16.30;99.90
40964;DHT22;26693;51.168;4.138;2022-10-24T06:36:28;16.10;99.90
40964;DHT22;26693;51.168;4.138;2022-10-24T06:37:28;16.20;99.90
40964;DHT22;26693;51.168;4.138;2022-10-24T06:38:30;16.20;99.90
40964;DHT22;26693;51.168;4.138;2022-10-24T06:39:30;16.20;99.90
40964;DHT22;26693;51.168;4.138;2022-10-24T06:40:31;16.20;99.90
40964;DHT22;26693;51.168;4.138;2022-10-24T06:41:32;16.30;99.90
40964;DHT22;26693;51.168;4.138;2022-10-24T06:42:32;16.30;99.90
40964;DHT22;26693;51.168;4.138;2022-10-24T06:43:33;16.20;99.90
40964;DHT22;26693;51.168;4.138;2022-10-24T06:44:34;16.10;99.90
40964;DHT22;26693;51.168;4.138;2022-10-24T06:45:37;16.00;99.90
40964;DHT22;26693;51.168;4.138;2022-10-24T06:46:37;16.10;99.90
40964;DHT22;26693;51.168;4.138;2022-10-24T06:47:38;16.10;99.90
40964;DHT22;26693;51.168;4.138;2022-10-24T06:48:39;16.10;99.90
40964;DHT22;26693;51.168;4.138;2022-10-24T06:49:39;16.00;99.90
40964;DHT22;26693;51.168;4.138;2022-10-24T06:50:40;16.10;99.90
40964;DHT22;26693;51.168;4.138;2022-10-24T06:51:43;16.10;99.90
40964;DHT22;26693;51.168;4.138;2022-10-24T06:52:44;16.20;99.90
40964;DHT22;26693;51.168;4.138;2022-10-24T06:53:44;16.10;99.90
40964;DHT22;26693;51.168;4.138;2022-10-24T06:54:45;16.10;99.90